Time;durP1;ratioP1;P1;durP2;ratioP2;P2;SDS_P1;SDS_P2;PMS_P1;PMS_P2;Temp;Humidity;BMP_temperature;BMP_pressure;BME280_temperature;BME280_humidity;BME280_pressure;Samples;Min_cycle;Max_cycle;Signal;HPM_P1;HPM_P2
2022/01/14 00:02:19;;;;;;;34.47;14.52;;;5.70;99.90;;;;;;6096248;23;20026;-83
2022/01/14 00:04:45;;;;;;;38.97;14.88;;;5.60;99.90;;;;;;6070724;23;20026;-83
2022/01/14 00:07:11;;;;;;;43.10;13.88;;;5.50;99.90;;;;;;6070843;23;20332;-82
2022/01/14 00:09:40;;;;;;;36.67;14.02;;;5.50;99.90;;;;;;6096132;23;20590;-84
2022/01/14 00:12:25;;;;;;;36.83;14.18;;;5.50;99.90;;;;;;6095274;23;20033;-84
2022/01/14 00:15:00;;;;;;;;;;;5.50;99.90;;;;;;6048217;23;20060;-83
2022/01/14 00:17:26;;;;;;;41.45;16.10;;;5.50;99.90;;;;;;6073041;23;19917;-83
2022/01/14 00:19:53;;;;;;;40.97;13.48;;;5.50;99.90;;;;;;6071195;23;20064;-82
2022/01/14 00:22:19;;;;;;;36.55;13.93;;;5.50;99.90;;;;;;6070762;23;20477;-83
2022/01/14 00:33:02;;;;;;;49.33;13.85;;;5.40;99.90;;;;;;6054701;23;20018;-83
2022/01/14 00:35:28;;;;;;;39.42;13.57;;;5.40;99.90;;;;;;6023662;23;20049;-82
2022/01/14 00:37:55;;;;;;;41.53;13.30;;;5.30;99.90;;;;;;6093853;23;20022;-83
2022/01/14 00:40:21;;;;;;;41.60;14.23;;;5.30;99.90;;;;;;6047011;23;20077;-82
2022/01/14 00:42:49;;;;;;;38.75;13.73;;;5.30;99.90;;;;;;6094661;23;20057;-83
2022/01/14 00:45:15;;;;;;;32.90;12.65;;;5.30;99.90;;;;;;6096393;23;20470;-82
2022/01/14 00:47:41;;;;;;;38.28;13.35;;;5.20;99.90;;;;;;6072151;23;20026;-82
2022/01/14 00:50:10;;;;;;;41.13;14.10;;;5.20;99.90;;;;;;6072063;23;20034;-82
2022/01/14 00:52:38;;;;;;;37.55;13.55;;;5.20;99.90;;;;;;6070410;23;20023;-83
2022/01/14 00:55:06;;;;;;;36.10;13.77;;;5.20;99.90;;;;;;6044265;23;20022;-85
2022/01/14 01:00:17;;;;;;;38.40;13.63;;;5.10;99.90;;;;;;6050150;23;20497;-82
2022/01/14 01:02:43;;;;;;;46.53;15.23;;;5.20;99.90;;;;;;6070690;23;20030;-83
2022/01/14 01:05:12;;;;;;;43.40;13.82;;;5.20;99.90;;;;;;6096094;23;20082;-83
2022/01/14 01:07:45;;;;;;;48.15;15.10;;;5.20;99.90;;;;;;6051175;23;20022;-83
2022/01/14 01:10:11;;;;;;;51.83;15.32;;;5.20;99.90;;;;;;6024819;23;20041;-83
2022/01/14 01:12:51;;;;;;;40.00;14.80;;;5.20;99.90;;;;;;6070660;23;20033;-84
2022/01/14 01:15:17;;;;;;;38.88;15.52;;;5.20;99.90;;;;;;6070864;23;20022;-82
2022/01/14 01:17:44;;;;;;;46.35;17.42;;;5.20;99.90;;;;;;6096564;23;20525;-83
2022/01/14 01:20:14;;;;;;;44.72;15.23;;;5.30;99.90;;;;;;6072371;23;20062;-82
2022/01/14 01:22:41;;;;;;;45.10;14.95;;;5.30;99.90;;;;;;6094221;23;20026;-83
2022/01/14 01:25:09;;;;;;;54.88;15.90;;;5.30;99.90;;;;;;6070073;23;20058;-82
2022/01/14 01:27:39;;;;;;;46.08;15.55;;;5.40;99.90;;;;;;6094286;23;20029;-84
2022/01/14 01:30:16;;;;;;;42.03;14.65;;;5.40;99.90;;;;;;6070367;23;20061;-81
2022/01/14 01:32:46;;;;;;;49.33;15.48;;;5.40;99.90;;;;;;6046281;23;20022;-83
2022/01/14 01:35:13;;;;;;;43.92;15.43;;;5.40;99.90;;;;;;6094293;23;20062;-83
2022/01/14 01:37:51;;;;;;;40.60;18.05;;;5.40;99.90;;;;;;6096281;23;20447;-82
2022/01/14 01:40:22;;;;;;;30.30;13.40;;;5.40;99.90;;;;;;6094297;23;20026;-82
2022/01/14 01:42:48;;;;;;;39.25;14.40;;;5.50;99.90;;;;;;6046592;23;20026;-82
2022/01/14 01:45:21;;;;;;;41.80;15.82;;;5.50;99.90;;;;;;6046950;23;20109;-84
2022/01/14 01:47:50;;;;;;;33.42;13.85;;;5.50;99.90;;;;;;6071548;23;20441;-83
2022/01/14 01:50:19;;;;;;;42.85;15.30;;;5.50;99.90;;;;;;6094271;23;20038;-83
2022/01/14 01:52:45;;;;;;;41.03;14.30;;;5.60;99.90;;;;;;6071623;23;20324;-82
2022/01/14 01:55:12;;;;;;;32.67;12.85;;;5.60;99.90;;;;;;6050464;23;20074;-83
2022/01/14 01:57:38;;;;;;;35.28;12.95;;;5.70;99.90;;;;;;6097875;23;20022;-82
2022/01/14 02:00:08;;;;;;;35.28;13.65;;;5.70;99.90;;;;;;6046897;23;20109;-83
2022/01/14 02:02:38;;;;;;;35.72;13.38;;;5.70;99.90;;;;;;6064558;23;20023;-84
2022/01/14 02:05:10;;;;;;;36.53;13.40;;;5.70;99.90;;;;;;6046866;23;20018;-84
2022/01/14 02:07:47;;;;;;;37.08;13.00;;;5.70;99.90;;;;;;6023128;23;20057;-84
2022/01/14 02:10:14;;;;;;;34.22;13.70;;;5.70;99.90;;;;;;6024226;23;20026;-84
2022/01/14 02:12:51;;;;;;;33.10;12.10;;;5.80;99.90;;;;;;6046315;23;20058;-84
2022/01/14 02:18:27;;;;;;;31.30;13.55;;;5.80;99.90;;;;;;6072588;23;20097;-84
2022/01/14 02:23:44;;;;;;;28.08;12.55;;;5.80;99.90;;;;;;6051186;23;20560;-83
2022/01/14 02:26:10;;;;;;;33.22;13.32;;;5.80;99.90;;;;;;6047232;23;20030;-83
2022/01/14 02:28:37;;;;;;;38.17;14.10;;;5.80;99.90;;;;;;6024009;23;20520;-83
2022/01/14 02:31:14;;;;;;;34.53;13.48;;;5.80;99.90;;;;;;6025579;23;20026;-84
2022/01/14 02:33:40;;;;;;;42.05;13.98;;;5.90;99.90;;;;;;6071996;23;20358;-84
2022/01/14 02:36:06;;;;;;;36.72;13.77;;;5.80;99.90;;;;;;6024300;23;20114;-83
2022/01/14 02:38:43;;;;;;;34.42;12.90;;;5.90;99.90;;;;;;6097628;23;20063;-83
2022/01/14 02:41:09;;;;;;;35.53;12.73;;;5.90;99.90;;;;;;6099834;23;20470;-83
2022/01/14 02:43:35;;;;;;;34.40;13.75;;;5.90;99.90;;;;;;6078848;23;20027;-82
2022/01/14 02:46:04;;;;;;;33.20;14.45;;;5.90;99.90;;;;;;6076960;23;20493;-84
2022/01/14 02:48:30;;;;;;;38.78;12.90;;;5.90;99.90;;;;;;6071479;23;20061;-83
2022/01/14 02:51:09;;;;;;;38.45;13.77;;;5.90;99.90;;;;;;6070783;23;20332;-82
2022/01/14 02:56:31;;;;;;;33.13;13.43;;;5.90;99.90;;;;;;6012659;23;20030;-83
2022/01/14 02:59:01;;;;;;;36.28;15.77;;;5.90;99.90;;;;;;6012653;23;20451;-82
2022/01/14 03:01:27;;;;;;;33.10;13.52;;;5.90;99.90;;;;;;6036318;23;20019;-83
2022/01/14 03:03:55;;;;;;;40.38;13.30;;;5.90;99.90;;;;;;6013067;23;20079;-82
2022/01/14 03:06:29;;;;;;;32.95;14.73;;;5.90;99.90;;;;;;6012862;23;20030;-82
2022/01/14 03:09:17;;;;;;;39.10;13.93;;;5.90;99.90;;;;;;6013060;23;20063;-82
2022/01/14 03:11:52;;;;;;;37.95;15.10;;;5.90;99.90;;;;;;6013203;23;20463;-83
2022/01/14 03:14:25;;;;;;;31.30;14.85;;;5.90;99.90;;;;;;6012972;23;20027;-82
2022/01/14 03:16:59;;;;;;;43.00;13.55;;;5.90;99.90;;;;;;6013360;23;20094;-84
2022/01/14 03:19:29;;;;;;;31.88;14.98;;;5.90;99.90;;;;;;6015745;23;20051;-82
2022/01/14 03:22:30;;;;;;;44.10;16.30;;;5.90;99.90;;;;;;6038646;23;20027;-83
2022/01/14 03:27:54;;;;;;;33.15;15.00;;;5.90;99.90;;;;;;6014282;23;20084;-83
2022/01/14 03:30:20;;;;;;;45.67;15.52;;;5.90;99.90;;;;;;6032056;23;20089;-82
2022/01/14 03:32:46;;;;;;;46.72;15.55;;;5.90;99.90;;;;;;6022510;23;20026;-82
2022/01/14 03:35:12;;;;;;;37.33;16.15;;;5.90;99.90;;;;;;6046996;23;20022;-84
2022/01/14 03:37:39;;;;;;;38.60;16.05;;;5.90;99.90;;;;;;6070353;23;20098;-82
2022/01/14 03:40:09;;;;;;;41.78;16.17;;;5.90;99.90;;;;;;6094870;23;20038;-83
2022/01/14 03:42:57;;;;;;;37.83;14.75;;;5.90;99.90;;;;;;6075040;23;20465;-83
2022/01/14 03:45:23;;;;;;;32.78;14.95;;;5.90;99.90;;;;;;6071316;23;20037;-84
2022/01/14 03:47:49;;;;;;;36.15;14.85;;;5.90;99.90;;;;;;6070472;23;20022;-83
2022/01/14 03:50:15;;;;;;;35.42;16.30;;;5.90;99.90;;;;;;6097045;23;20065;-83
2022/01/14 03:52:40;;;;;;;34.08;14.52;;;5.90;99.90;;;;;;6070536;23;20351;-83
2022/01/14 03:55:06;;;;;;;34.92;14.35;;;5.80;99.90;;;;;;6071241;23;20058;-82
2022/01/14 03:57:32;;;;;;;31.67;13.93;;;5.80;99.90;;;;;;6049091;23;20453;-83
2022/01/14 03:59:58;;;;;;;35.53;14.10;;;5.70;99.90;;;;;;6096367;23;20104;-83
2022/01/14 04:02:24;;;;;;;43.00;15.48;;;5.70;99.90;;;;;;6070508;23;20018;-83
2022/01/14 04:04:49;;;;;;;40.75;15.63;;;5.60;99.90;;;;;;6094884;23;20034;-85
2022/01/14 04:07:15;;;;;;;31.17;15.05;;;5.50;99.90;;;;;;6071102;23;20485;-83
2022/01/14 04:09:42;;;;;;;44.45;16.50;;;5.50;99.90;;;;;;6072286;23;20078;-82
2022/01/14 04:12:15;;;;;;;35.30;16.73;;;5.50;99.90;;;;;;6072782;23;20458;-82
2022/01/14 04:17:12;;;;;;;41.33;15.85;;;5.40;99.90;;;;;;6094627;23;20721;-84
2022/01/14 04:19:38;;;;;;;37.40;14.77;;;5.40;99.90;;;;;;6071251;23;20034;-83
2022/01/14 04:22:04;;;;;;;33.42;14.98;;;5.40;99.90;;;;;;6071335;23;20547;-84
2022/01/14 04:24:30;;;;;;;43.15;16.83;;;5.40;99.90;;;;;;6094698;23;20036;-83
2022/01/14 04:26:56;;;;;;;39.20;16.80;;;5.30;99.90;;;;;;6071047;23;20101;-82
2022/01/14 04:29:43;;;;;;;42.95;16.90;;;5.30;99.90;;;;;;6071523;23;20065;-84
2022/01/14 04:32:25;;;;;;;43.70;18.58;;;5.30;99.90;;;;;;6073472;23;20030;-85
2022/01/14 04:34:50;;;;;;;38.13;15.88;;;5.40;99.90;;;;;;6070594;23;20034;-83
2022/01/14 04:37:24;;;;;;;33.83;14.90;;;5.40;99.90;;;;;;6070257;23;20029;-84
2022/01/14 04:39:50;;;;;;;41.67;16.38;;;5.40;99.90;;;;;;6070138;23;20061;-84
2022/01/14 04:42:26;;;;;;;43.28;17.73;;;5.40;99.90;;;;;;6095748;23;20033;-82
2022/01/14 04:48:02;;;;;;;38.65;18.40;;;5.40;99.90;;;;;;6094724;23;20023;-84
2022/01/14 04:50:35;;;;;;;37.63;17.00;;;5.40;99.90;;;;;;6046668;23;20395;-84
2022/01/14 04:53:01;;;;;;;39.35;17.85;;;5.40;99.90;;;;;;6071856;23;20463;-83
2022/01/14 04:55:28;;;;;;;38.90;15.75;;;5.40;99.90;;;;;;6073633;23;20055;-83
2022/01/14 04:57:56;;;;;;;41.13;17.23;;;5.40;99.90;;;;;;6073645;23;20022;-84
2022/01/14 05:00:25;;;;;;;42.40;17.20;;;5.40;99.90;;;;;;6046313;23;20086;-84
2022/01/14 05:02:52;;;;;;;38.88;16.88;;;5.40;99.90;;;;;;6046382;23;20030;-83
2022/01/14 05:05:37;;;;;;;36.38;16.13;;;5.40;99.90;;;;;;6073048;23;20085;-83
2022/01/14 05:08:10;;;;;;;42.45;16.92;;;5.50;99.90;;;;;;6070279;23;20109;-83
2022/01/14 05:13:24;;;;;;;45.63;17.90;;;5.50;99.90;;;;;;5988340;23;20019;-83
2022/01/14 05:15:51;;;;;;;41.35;16.63;;;5.50;99.90;;;;;;6035077;23;20031;-84
2022/01/14 05:18:17;;;;;;;43.35;17.08;;;5.50;99.90;;;;;;5984907;23;20031;-83
2022/01/14 05:20:47;;;;;;;44.08;16.60;;;5.60;99.90;;;;;;6035426;23;20030;-83
2022/01/14 05:23:12;;;;;;;37.70;15.02;;;5.60;99.90;;;;;;6012177;23;20027;-83
2022/01/14 05:25:39;;;;;;;37.15;14.32;;;5.60;99.90;;;;;;6012180;23;20015;-83
2022/01/14 05:28:05;;;;;;;29.20;12.27;;;5.70;99.90;;;;;;6011985;23;20241;-82
2022/01/14 05:30:33;;;;;;;28.20;11.93;;;5.70;99.90;;;;;;6034730;23;20083;-82
2022/01/14 05:32:59;;;;;;;39.55;14.68;;;5.70;99.90;;;;;;6020814;23;20023;-83
2022/01/14 05:35:28;;;;;;;37.60;13.60;;;5.70;99.90;;;;;;6043501;23;20026;-84
2022/01/14 05:37:54;;;;;;;33.60;12.15;;;5.80;99.90;;;;;;6042002;23;20023;-83
2022/01/14 05:40:23;;;;;;;31.55;12.77;;;5.80;99.90;;;;;;6040376;23;20362;-85
2022/01/14 05:42:57;;;;;;;36.85;11.40;;;5.80;99.90;;;;;;6067639;23;20022;-84
2022/01/14 05:45:24;;;;;;;33.40;9.52;;;5.80;99.90;;;;;;6068783;23;20105;-84
2022/01/14 05:50:34;;;;;;;45.95;12.15;;;5.90;99.90;;;;;;6071606;23;20359;-84
2022/01/14 05:52:59;;;;;;;30.55;10.32;;;5.90;99.90;;;;;;6072519;23;20026;-83
2022/01/14 05:55:25;;;;;;;27.65;8.75;;;5.90;99.90;;;;;;6095869;23;20038;-83
2022/01/14 05:57:51;;;;;;;31.10;10.02;;;5.90;99.90;;;;;;6099511;23;20037;-85
2022/01/14 06:00:20;;;;;;;22.67;8.60;;;5.90;99.90;;;;;;6072454;23;20358;-83
2022/01/14 06:02:48;;;;;;;38.15;10.50;;;5.90;99.90;;;;;;6024667;23;20022;-83
2022/01/14 06:05:15;;;;;;;29.15;11.20;;;5.90;99.90;;;;;;6071931;23;20022;-85
2022/01/14 06:07:41;;;;;;;27.48;8.73;;;5.90;99.90;;;;;;6070918;23;20081;-83
2022/01/14 06:10:08;;;;;;;21.25;8.70;;;5.90;99.90;;;;;;6071892;23;20027;-83
2022/01/14 06:12:34;;;;;;;35.05;8.60;;;5.90;99.90;;;;;;6048217;23;20018;-82
2022/01/14 06:15:15;;;;;;;31.45;8.80;;;5.80;99.90;;;;;;6037536;23;20748;-84
2022/01/14 06:17:41;;;;;;;26.95;7.90;;;5.90;99.90;;;;;;6013455;23;20029;-82
2022/01/14 06:20:07;;;;;;;34.85;8.75;;;5.90;99.90;;;;;;6013037;23;20059;-82
2022/01/14 06:22:35;;;;;;;40.25;9.38;;;5.90;99.90;;;;;;6013876;23;20027;-82
2022/01/14 06:25:01;;;;;;;37.15;8.98;;;5.90;99.90;;;;;;6010599;23;20027;-83
2022/01/14 06:27:28;;;;;;;29.10;8.45;;;5.80;99.90;;;;;;5985643;23;20020;-82
2022/01/14 06:29:53;;;;;;;24.55;6.05;;;5.90;99.90;;;;;;5988062;23;20110;-82
2022/01/14 06:32:19;;;;;;;24.63;6.30;;;5.90;99.90;;;;;;5984834;23;20082;-83
2022/01/14 06:34:45;;;;;;;33.10;8.35;;;6.00;99.90;;;;;;6004544;23;20024;-83
2022/01/14 06:37:11;;;;;;;29.67;7.00;;;6.00;99.90;;;;;;6036768;23;20059;-83
2022/01/14 06:39:36;;;;;;;39.05;7.20;;;6.00;99.90;;;;;;6012842;23;20123;-83
2022/01/14 06:42:02;;;;;;;26.75;6.10;;;6.10;99.90;;;;;;6012989;23;20027;-81
2022/01/14 06:44:28;;;;;;;19.20;6.10;;;6.10;99.90;;;;;;6036684;23;20027;-83
2022/01/14 06:46:54;;;;;;;27.05;5.78;;;6.10;99.90;;;;;;6012838;23;20066;-83
2022/01/14 06:49:20;;;;;;;22.08;5.15;;;6.10;99.90;;;;;;6012738;23;20479;-82
2022/01/14 06:51:45;;;;;;;25.50;6.00;;;6.10;99.90;;;;;;6022511;23;20572;-83
2022/01/14 06:54:14;;;;;;;28.60;5.72;;;6.10;99.90;;;;;;6070593;23;20034;-85
2022/01/14 06:56:39;;;;;;;18.10;6.13;;;6.00;99.90;;;;;;6047369;23;20022;-83
2022/01/14 06:59:06;;;;;;;23.85;5.68;;;6.10;99.90;;;;;;6071255;23;20490;-84
2022/01/14 07:01:32;;;;;;;22.52;6.20;;;6.10;99.90;;;;;;6073904;23;20058;-85
2022/01/14 07:03:59;;;;;;;30.67;6.03;;;6.10;99.90;;;;;;6077093;23;20034;-84
2022/01/14 07:06:24;;;;;;;24.85;5.90;;;6.10;99.90;;;;;;6077539;23;20355;-84
2022/01/14 07:08:50;;;;;;;30.38;5.32;;;6.10;99.90;;;;;;6071919;23;20462;-85
2022/01/14 07:11:16;;;;;;;35.50;6.38;;;6.10;99.90;;;;;;6096158;23;20573;-82
2022/01/14 07:13:45;;;;;;;24.58;6.03;;;6.10;99.90;;;;;;6047559;23;20023;-83
2022/01/14 07:16:11;;;;;;;21.33;5.53;;;6.00;99.90;;;;;;6070469;23;20030;-83
2022/01/14 07:18:37;;;;;;;20.02;5.63;;;6.10;99.90;;;;;;6071360;23;20451;-83
2022/01/14 07:21:02;;;;;;;26.10;4.95;;;6.10;99.90;;;;;;6070930;23;20355;-82
2022/01/14 07:23:28;;;;;;;14.95;5.32;;;6.10;99.90;;;;;;6095358;23;20458;-82
2022/01/14 07:25:54;;;;;;;28.55;4.80;;;6.10;99.90;;;;;;6047018;23;20056;-86
2022/01/14 07:28:20;;;;;;;13.07;4.22;;;6.10;99.90;;;;;;6071380;23;20022;-83
2022/01/14 07:30:45;;;;;;;24.77;6.05;;;6.10;99.90;;;;;;6071327;23;20462;-84
2022/01/14 07:33:11;;;;;;;23.90;4.95;;;6.10;99.90;;;;;;6073534;23;20022;-84
2022/01/14 07:35:39;;;;;;;19.38;4.72;;;6.00;99.90;;;;;;6125096;23;20033;-82
2022/01/14 07:38:06;;;;;;;28.70;6.18;;;6.10;99.90;;;;;;6076749;23;20026;-84
2022/01/14 07:40:32;;;;;;;23.63;6.20;;;6.10;99.90;;;;;;6100116;23;20354;-83
2022/01/14 07:42:58;;;;;;;28.38;5.63;;;6.10;99.90;;;;;;6101540;23;20032;-83
2022/01/14 07:45:24;;;;;;;16.40;4.78;;;6.10;99.90;;;;;;6127384;23;20021;-84
2022/01/14 07:47:49;;;;;;;29.90;6.80;;;6.10;99.90;;;;;;6076319;23;20026;-82
2022/01/14 07:50:15;;;;;;;20.40;5.22;;;6.10;99.90;;;;;;6051901;23;20026;-82
2022/01/14 07:52:44;;;;;;;16.05;5.05;;;6.10;99.90;;;;;;6076757;23;20022;-84
2022/01/14 07:55:30;;;;;;;23.08;4.78;;;6.10;99.90;;;;;;6100712;23;20088;-83
2022/01/14 07:58:17;;;;;;;28.15;6.63;;;6.10;99.90;;;;;;6127205;23;20022;-83
2022/01/14 08:00:43;;;;;;;16.85;4.85;;;6.10;99.90;;;;;;6102426;23;20022;-84
2022/01/14 08:03:09;;;;;;;21.58;5.00;;;6.10;99.90;;;;;;6102346;23;20498;-84
2022/01/14 08:05:35;;;;;;;23.73;5.15;;;6.10;99.90;;;;;;6098858;23;20026;-83
2022/01/14 08:08:09;;;;;;;21.75;5.88;;;6.10;99.90;;;;;;6074355;23;20113;-84
2022/01/14 08:10:36;;;;;;;21.50;5.27;;;6.10;99.90;;;;;;6098771;23;20101;-84
2022/01/14 08:13:02;;;;;;;23.38;4.93;;;6.10;99.90;;;;;;6125871;23;20020;-83
2022/01/14 08:15:28;;;;;;;23.15;4.82;;;6.10;99.90;;;;;;6099836;23;20029;-82
2022/01/14 08:17:55;;;;;;;23.17;5.97;;;6.10;99.90;;;;;;6124132;23;20018;-82
2022/01/14 08:20:21;;;;;;;29.38;4.90;;;6.10;99.90;;;;;;6053260;23;20033;-82
2022/01/14 08:22:47;;;;;;;29.23;6.43;;;6.10;99.90;;;;;;6073880;23;20153;-82
2022/01/14 08:25:13;;;;;;;20.73;4.63;;;6.10;99.90;;;;;;6099388;23;20058;-83
2022/01/14 08:27:39;;;;;;;25.08;5.47;;;6.10;99.90;;;;;;6123856;23;20341;-85
2022/01/14 08:30:06;;;;;;;23.15;4.93;;;6.10;99.90;;;;;;6099264;23;20496;-84
2022/01/14 08:32:32;;;;;;;25.42;4.90;;;6.20;99.90;;;;;;6051001;23;20100;-82
2022/01/14 08:34:58;;;;;;;23.95;4.85;;;6.20;99.90;;;;;;6074509;23;20068;-82
2022/01/14 08:37:24;;;;;;;40.85;6.50;;;6.20;99.90;;;;;;6075313;23;20022;-83
2022/01/14 08:39:50;;;;;;;22.10;4.30;;;6.20;99.90;;;;;;6098125;23;20061;-83
2022/01/14 08:42:17;;;;;;;21.65;4.35;;;6.30;99.90;;;;;;6124229;23;20146;-83
2022/01/14 08:44:44;;;;;;;13.93;3.67;;;6.30;99.90;;;;;;6099479;23;20045;-83
2022/01/14 08:47:11;;;;;;;19.83;3.88;;;6.30;99.90;;;;;;6099926;23;20036;-82
2022/01/14 08:49:40;;;;;;;19.17;3.58;;;6.40;99.90;;;;;;6099563;23;20029;-82
2022/01/14 08:52:08;;;;;;;18.50;4.82;;;6.40;99.90;;;;;;6127698;23;20414;-83
2022/01/14 08:54:34;;;;;;;23.67;4.18;;;6.40;99.90;;;;;;6128249;23;20105;-82
2022/01/14 08:57:03;;;;;;;25.83;4.63;;;6.40;99.90;;;;;;6102718;23;20028;-84
2022/01/14 08:59:32;;;;;;;21.73;4.47;;;6.40;99.90;;;;;;6125952;23;20032;-83
2022/01/14 09:02:00;;;;;;;20.85;4.05;;;6.40;99.90;;;;;;6100224;23;20022;-84
2022/01/14 09:04:25;;;;;;;20.50;3.97;;;6.50;99.90;;;;;;6101292;23;20532;-83
2022/01/14 09:06:51;;;;;;;19.95;3.35;;;6.50;99.90;;;;;;6125734;23;20069;-83
2022/01/14 09:09:17;;;;;;;22.63;3.63;;;6.40;99.90;;;;;;6098912;23;20079;-84
2022/01/14 09:11:43;;;;;;;15.68;3.67;;;6.50;99.90;;;;;;6125293;23;20028;-86
2022/01/14 09:14:09;;;;;;;22.83;3.90;;;6.50;99.90;;;;;;6098071;23;20022;-84
2022/01/14 09:16:36;;;;;;;24.08;5.35;;;6.50;99.90;;;;;;6075155;23;20121;-84
2022/01/14 09:19:02;;;;;;;20.50;3.38;;;6.50;99.90;;;;;;6123536;23;20022;-84
2022/01/14 09:21:29;;;;;;;17.08;3.13;;;6.50;99.90;;;;;;6099330;23;20480;-83
2022/01/14 09:24:05;;;;;;;30.33;6.00;;;6.60;99.90;;;;;;6126948;23;20026;-85
2022/01/14 09:26:32;;;;;;;16.77;2.90;;;6.60;99.90;;;;;;6054816;23;20022;-85
2022/01/14 09:29:00;;;;;;;12.98;3.75;;;6.60;99.90;;;;;;6076877;23;20029;-84
2022/01/14 09:31:26;;;;;;;17.92;4.00;;;6.60;99.90;;;;;;6054458;23;20029;-85
2022/01/14 09:33:52;;;;;;;22.02;4.53;;;6.60;99.90;;;;;;6127797;23;20029;-85
2022/01/14 09:36:18;;;;;;;15.75;3.92;;;6.60;99.90;;;;;;6103145;23;20033;-84
2022/01/14 09:38:44;;;;;;;14.63;3.65;;;6.60;99.90;;;;;;6126458;23;20022;-82
2022/01/14 09:41:13;;;;;;;27.45;4.18;;;6.70;99.90;;;;;;6125718;23;20080;-84
2022/01/14 09:43:39;;;;;;;19.73;4.35;;;6.70;99.90;;;;;;6057997;23;20057;-83
2022/01/14 09:46:11;;;;;;;34.92;5.70;;;6.80;99.90;;;;;;6080578;23;20061;-83
2022/01/14 09:48:38;;;;;;;16.25;3.75;;;6.90;99.90;;;;;;6101345;23;20033;-83
2022/01/14 09:51:05;;;;;;;21.90;3.00;;;6.90;99.90;;;;;;6101618;23;20057;-85
2022/01/14 09:53:33;;;;;;;20.15;3.47;;;6.90;99.90;;;;;;6077566;23;20022;-85
2022/01/14 09:56:08;;;;;;;18.58;3.63;;;6.90;99.90;;;;;;6077477;23;20386;-83
2022/01/14 09:58:53;;;;;;;19.35;4.40;;;6.90;99.90;;;;;;6101006;23;20026;-84
2022/01/14 10:01:22;;;;;;;17.52;3.35;;;6.90;99.90;;;;;;6100294;23;20022;-84
2022/01/14 10:04:07;;;;;;;28.48;3.25;;;6.90;99.90;;;;;;6077607;23;20022;-85
2022/01/14 10:06:52;;;;;;;25.67;5.95;;;6.90;99.90;;;;;;6051824;23;20065;-83
2022/01/14 10:09:24;;;;;;;26.92;4.32;;;6.90;99.90;;;;;;6077114;23;20026;-82
2022/01/14 10:12:24;;;;;;;19.98;4.28;;;7.00;99.90;;;;;;6079449;23;20349;-86
2022/01/14 10:14:56;;;;;;;25.20;4.43;;;7.00;99.90;;;;;;6078280;23;20475;-84
2022/01/14 10:17:37;;;;;;;;;;;7.00;99.90;;;;;;6102693;23;20097;-83
2022/01/14 10:20:04;;;;;;;25.88;4.78;;;7.00;99.90;;;;;;6100803;23;19968;-84
2022/01/14 10:22:33;;;;;;;19.15;4.88;;;7.00;99.90;;;;;;6100755;23;20033;-84
2022/01/14 10:25:06;;;;;;;22.92;4.93;;;7.00;99.90;;;;;;6100669;23;20076;-85
2022/01/14 10:27:42;;;;;;;27.40;5.03;;;7.00;99.90;;;;;;6100022;23;20026;-84
2022/01/14 10:30:14;;;;;;;19.00;4.28;;;7.00;99.90;;;;;;6125244;23;20104;-84
2022/01/14 10:32:42;;;;;;;21.38;4.15;;;7.00;99.90;;;;;;6101282;23;20117;-84
2022/01/14 10:35:10;;;;;;;19.90;4.55;;;7.00;99.90;;;;;;6126213;23;20057;-85
2022/01/14 10:37:37;;;;;;;28.38;4.25;;;7.00;99.90;;;;;;6102771;23;20505;-85
2022/01/14 10:40:24;;;;;;;21.05;4.03;;;7.00;99.90;;;;;;6131294;23;20032;-83
2022/01/14 10:42:52;;;;;;;24.13;4.22;;;7.00;99.90;;;;;;6103047;23;20033;-83
2022/01/14 10:45:27;;;;;;;21.95;4.28;;;7.00;99.90;;;;;;6100862;23;20036;-84
2022/01/14 10:48:17;;;;;;;16.30;5.18;;;7.00;99.90;;;;;;6100365;23;20358;-82
2022/01/14 10:50:42;;;;;;;23.65;4.20;;;7.00;99.90;;;;;;6125524;23;20083;-83
2022/01/14 10:53:14;;;;;;;22.27;3.97;;;7.00;99.90;;;;;;6131561;23;20026;-83
2022/01/14 10:55:44;;;;;;;25.30;4.72;;;7.00;99.90;;;;;;6103679;23;20018;-83
2022/01/14 10:58:35;;;;;;;24.75;3.90;;;7.00;99.90;;;;;;6097215;23;20111;-84
2022/01/14 11:01:21;;;;;;;11.63;3.75;;;7.10;99.90;;;;;;6076568;23;20054;-83
2022/01/14 11:04:16;;;;;;;22.70;4.65;;;7.10;99.90;;;;;;6053127;23;20091;-83
2022/01/14 11:07:02;;;;;;;28.63;4.72;;;7.10;99.90;;;;;;6100227;23;20025;-84
2022/01/14 11:09:33;;;;;;;20.00;3.92;;;7.20;99.90;;;;;;6080426;23;20540;-82
2022/01/14 11:12:18;;;;;;;19.50;4.30;;;7.20;99.90;;;;;;6101932;23;20022;-84
2022/01/14 11:14:45;;;;;;;24.90;4.60;;;7.20;99.90;;;;;;6077095;23;20021;-84
2022/01/14 11:17:11;;;;;;;18.98;4.45;;;7.20;99.90;;;;;;6100881;23;20362;-84
2022/01/14 11:19:37;;;;;;;26.08;4.05;;;7.30;99.90;;;;;;6124238;23;20029;-84
2022/01/14 11:24:48;;;;;;;28.33;4.63;;;7.30;99.90;;;;;;6126356;23;20373;-84
2022/01/14 11:27:15;;;;;;;24.95;4.95;;;7.30;99.90;;;;;;6125175;23;20022;-83
2022/01/14 11:29:45;;;;;;;25.30;5.35;;;7.40;99.90;;;;;;6126777;23;20030;-86
2022/01/14 11:32:11;;;;;;;19.33;4.97;;;7.50;99.90;;;;;;6130488;23;20022;-84
2022/01/14 11:34:37;;;;;;;23.80;5.38;;;7.50;99.90;;;;;;6075800;23;20027;-83
2022/01/14 11:37:13;;;;;;;30.48;6.20;;;7.50;99.90;;;;;;6103264;23;20057;-81
2022/01/14 11:39:53;;;;;;;26.10;5.15;;;7.50;99.90;;;;;;6053874;23;20026;-84
2022/01/14 11:42:19;;;;;;;25.38;5.70;;;7.60;99.90;;;;;;6048556;23;20018;-83
2022/01/14 11:45:00;;;;;;;24.42;4.80;;;7.60;99.90;;;;;;6071076;23;20026;-83
2022/01/14 11:47:28;;;;;;;23.75;5.20;;;7.60;99.90;;;;;;6049206;23;20022;-83
2022/01/14 11:49:58;;;;;;;25.48;4.95;;;7.70;99.90;;;;;;6095035;23;20027;-82
2022/01/14 11:52:40;;;;;;;21.45;4.60;;;7.60;99.90;;;;;;6096928;23;20033;-83
2022/01/14 11:55:31;;;;;;;24.92;4.63;;;7.70;99.90;;;;;;6095281;23;20101;-81
2022/01/14 11:58:00;;;;;;;22.73;4.63;;;7.70;99.90;;;;;;6070069;23;20022;-82
2022/01/14 12:00:44;;;;;;;26.92;4.95;;;7.70;99.90;;;;;;6047097;23;20026;-82
2022/01/14 12:03:13;;;;;;;23.85;4.20;;;7.70;99.90;;;;;;6071390;23;20026;-83
2022/01/14 12:06:05;;;;;;;29.00;5.78;;;7.70;99.90;;;;;;6070393;23;20026;-83
2022/01/14 12:08:36;;;;;;;26.65;6.25;;;7.70;99.90;;;;;;6097079;23;20101;-82
2022/01/14 12:11:07;;;;;;;26.55;5.72;;;7.70;99.90;;;;;;6071032;23;20026;-81
2022/01/14 12:13:55;;;;;;;21.90;5.00;;;7.70;99.90;;;;;;6070945;23;20104;-82
2022/01/14 12:18:58;;;;;;;28.27;5.57;;;7.70;99.90;;;;;;6096663;23;20030;-83
2022/01/14 12:21:50;;;;;;;27.75;5.90;;;7.70;99.90;;;;;;6098372;23;20023;-84
2022/01/14 12:24:31;;;;;;;28.52;5.10;;;7.70;99.90;;;;;;6075586;23;20067;-85
2022/01/14 12:26:57;;;;;;;27.30;5.00;;;7.70;99.90;;;;;;6024946;23;20489;-82
2022/01/14 12:29:42;;;;;;;26.98;5.55;;;7.80;99.90;;;;;;6099440;23;20027;-84
2022/01/14 12:32:37;;;;;;;29.48;6.18;;;7.80;99.90;;;;;;6073127;23;20074;-84
2022/01/14 12:35:15;;;;;;;20.35;4.93;;;7.80;99.90;;;;;;6068180;23;20082;-83
2022/01/14 12:37:52;;;;;;;27.73;4.70;;;7.80;99.90;;;;;;6125090;23;20036;-85
2022/01/14 12:40:26;;;;;;;25.50;5.07;;;7.80;99.90;;;;;;6123188;23;20101;-83
2022/01/14 12:42:57;;;;;;;30.27;6.10;;;7.80;99.90;;;;;;6098679;23;20018;-84
2022/01/14 12:45:37;;;;;;;21.58;4.07;;;7.70;99.90;;;;;;6123731;23;20461;-83
2022/01/14 12:48:39;;;;;;;26.33;5.57;;;7.70;99.90;;;;;;6123967;23;20022;-86
2022/01/14 12:51:08;;;;;;;26.40;4.55;;;7.70;99.90;;;;;;6075004;23;20049;-83
2022/01/14 12:53:35;;;;;;;28.27;5.15;;;7.70;99.90;;;;;;6100593;23;20346;-84
2022/01/14 12:56:15;;;;;;;37.47;5.63;;;7.70;99.90;;;;;;6124787;23;20035;-83
2022/01/14 12:59:10;;;;;;;28.77;4.75;;;7.70;99.90;;;;;;6013919;23;20031;-85
2022/01/14 13:01:50;;;;;;;37.88;7.82;;;7.70;99.90;;;;;;6013737;23;20031;-83
2022/01/14 13:04:18;;;;;;;26.63;4.85;;;7.60;99.90;;;;;;6013122;23;20033;-84
2022/01/14 13:06:44;;;;;;;34.03;5.13;;;7.60;99.90;;;;;;6032388;23;20023;-85
2022/01/14 13:09:10;;;;;;;32.85;6.75;;;7.60;99.90;;;;;;5988911;23;20034;-84
2022/01/14 13:12:15;;;;;;;29.92;5.63;;;7.60;99.90;;;;;;6011961;23;20039;-84
2022/01/14 13:14:58;;;;;;;33.00;8.00;;;7.60;99.90;;;;;;5928247;24;20430;-83
2022/01/14 13:18:07;;;;;;;34.08;5.22;;;7.60;99.90;;;;;;5928234;24;20138;-83
2022/01/14 13:20:38;;;;;;;35.25;5.40;;;7.60;99.90;;;;;;5930026;24;20032;-83
2022/01/14 13:23:07;;;;;;;26.95;7.80;;;7.60;99.90;;;;;;5929962;24;20489;-83
2022/01/14 13:25:33;;;;;;;29.02;5.03;;;7.60;99.90;;;;;;5928856;24;20091;-83
2022/01/14 13:28:02;;;;;;;36.83;6.47;;;7.60;99.90;;;;;;5952379;24;20032;-84
2022/01/14 13:30:38;;;;;;;37.03;6.55;;;7.70;99.90;;;;;;5967512;23;20522;-84
2022/01/14 13:33:09;;;;;;;26.95;5.55;;;7.70;99.90;;;;;;6007465;23;20024;-83
2022/01/14 13:35:39;;;;;;;31.33;5.82;;;7.60;99.90;;;;;;6031339;23;20039;-83
2022/01/14 13:38:20;;;;;;;52.00;7.72;;;7.60;99.90;;;;;;6008801;23;20035;-83
2022/01/14 13:40:49;;;;;;;33.90;6.30;;;7.60;99.90;;;;;;5960653;23;20176;-83